sensor_id;sensor_type;location;lat;lon;timestamp;temperature;humidity
10390;DHT22;5241;47.830;12.972;2022-08-19T00:00:17;19.70;99.90
10390;DHT22;5241;47.830;12.972;2022-08-19T00:02:42;19.70;99.90
10390;DHT22;5241;47.830;12.972;2022-08-19T00:05:10;19.70;99.90
10390;DHT22;5241;47.830;12.972;2022-08-19T00:07:36;19.70;99.90
10390;DHT22;5241;47.830;12.972;2022-08-19T00:10:04;19.80;99.90
10390;DHT22;5241;47.830;12.972;2022-08-19T00:12:30;19.80;99.90
10390;DHT22;5241;47.830;12.972;2022-08-19T00:14:55;19.80;99.90
10390;DHT22;5241;47.830;12.972;2022-08-19T00:17:21;19.80;99.90
10390;DHT22;5241;47.830;12.972;2022-08-19T00:19:46;19.80;99.90
10390;DHT22;5241;47.830;12.972;2022-08-19T00:22:12;19.80;99.90
10390;DHT22;5241;47.830;12.972;2022-08-19T00:24:38;19.80;99.90
10390;DHT22;5241;47.830;12.972;2022-08-19T00:27:04;19.80;99.90
10390;DHT22;5241;47.830;12.972;2022-08-19T00:29:30;19.80;99.90
10390;DHT22;5241;47.830;12.972;2022-08-19T00:31:56;19.70;99.90
10390;DHT22;5241;47.830;12.972;2022-08-19T00:34:24;19.60;99.90
10390;DHT22;5241;47.830;12.972;2022-08-19T00:36:55;19.60;99.90
10390;DHT22;5241;47.830;12.972;2022-08-19T00:39:20;19.60;99.90
10390;DHT22;5241;47.830;12.972;2022-08-19T00:41:48;19.70;99.90
10390;DHT22;5241;47.830;12.972;2022-08-19T00:44:20;19.70;99.90
10390;DHT22;5241;47.830;12.972;2022-08-19T00:46:48;19.80;99.90
10390;DHT22;5241;47.830;12.972;2022-08-19T00:49:33;19.80;99.90
10390;DHT22;5241;47.830;12.972;2022-08-19T00:52:08;19.80;99.90
10390;DHT22;5241;47.830;12.972;2022-08-19T00:54:36;19.90;99.90
10390;DHT22;5241;47.830;12.972;2022-08-19T00:57:06;19.90;99.90
10390;DHT22;5241;47.830;12.972;2022-08-19T00:59:35;19.80;99.90
10390;DHT22;5241;47.830;12.972;2022-08-19T01:02:03;19.80;99.90
10390;DHT22;5241;47.830;12.972;2022-08-19T01:04:29;19.60;99.90
10390;DHT22;5241;47.830;12.972;2022-08-19T01:06:55;19.50;99.90
10390;DHT22;5241;47.830;12.972;2022-08-19T01:09:21;19.40;99.90
10390;DHT22;5241;47.830;12.972;2022-08-19T01:11:47;19.40;99.90
10390;DHT22;5241;47.830;12.972;2022-08-19T01:14:13;19.30;99.90
10390;DHT22;5241;47.830;12.972;2022-08-19T01:16:39;19.20;99.90
10390;DHT22;5241;47.830;12.972;2022-08-19T01:19:17;19.20;99.90
10390;DHT22;5241;47.830;12.972;2022-08-19T01:22:00;19.30;99.90
10390;DHT22;5241;47.830;12.972;2022-08-19T01:24:27;19.20;99.90
10390;DHT22;5241;47.830;12.972;2022-08-19T01:26:52;19.30;99.90
10390;DHT22;5241;47.830;12.972;2022-08-19T01:29:18;19.30;99.90
10390;DHT22;5241;47.830;12.972;2022-08-19T01:31:43;19.20;99.90
10390;DHT22;5241;47.830;12.972;2022-08-19T01:34:09;19.30;99.90
10390;DHT22;5241;47.830;12.972;2022-08-19T01:36:42;19.30;99.90
10390;DHT22;5241;47.830;12.972;2022-08-19T01:39:14;19.40;99.90
10390;DHT22;5241;47.830;12.972;2022-08-19T01:41:40;19.40;99.90
10390;DHT22;5241;47.830;12.972;2022-08-19T01:44:07;19.50;99.90
10390;DHT22;5241;47.830;12.972;2022-08-19T01:46:33;19.60;99.90
10390;DHT22;5241;47.830;12.972;2022-08-19T01:48:59;19.70;99.90
10390;DHT22;5241;47.830;12.972;2022-08-19T01:51:26;19.70;99.90
10390;DHT22;5241;47.830;12.972;2022-08-19T01:53:51;19.90;99.90
10390;DHT22;5241;47.830;12.972;2022-08-19T01:56:18;19.90;99.90
10390;DHT22;5241;47.830;12.972;2022-08-19T01:58:51;19.90;99.90
10390;DHT22;5241;47.830;12.972;2022-08-19T02:01:18;19.80;99.90
10390;DHT22;5241;47.830;12.972;2022-08-19T02:03:44;19.70;99.90
10390;DHT22;5241;47.830;12.972;2022-08-19T02:06:10;19.60;99.90
10390;DHT22;5241;47.830;12.972;2022-08-19T02:08:37;19.50;99.90
10390;DHT22;5241;47.830;12.972;2022-08-19T02:11:04;19.50;99.90
10390;DHT22;5241;47.830;12.972;2022-08-19T02:13:31;19.50;99.90
10390;DHT22;5241;47.830;12.972;2022-08-19T02:15:57;19.40;99.90
10390;DHT22;5241;47.830;12.972;2022-08-19T02:18:23;19.50;99.90
10390;DHT22;5241;47.830;12.972;2022-08-19T02:20:49;19.60;99.90
10390;DHT22;5241;47.830;12.972;2022-08-19T02:23:16;19.60;99.90
10390;DHT22;5241;47.830;12.972;2022-08-19T02:25:44;19.70;99.90
10390;DHT22;5241;47.830;12.972;2022-08-19T02:28:10;19.70;99.90
10390;DHT22;5241;47.830;12.972;2022-08-19T02:30:37;19.70;99.90
10390;DHT22;5241;47.830;12.972;2022-08-19T02:33:03;19.80;99.90
10390;DHT22;5241;47.830;12.972;2022-08-19T02:35:30;19.80;99.90
10390;DHT22;5241;47.830;12.972;2022-08-19T02:37:56;19.80;99.90
10390;DHT22;5241;47.830;12.972;2022-08-19T02:40:40;19.80;99.90
10390;DHT22;5241;47.830;12.972;2022-08-19T02:43:08;19.90;99.90
10390;DHT22;5241;47.830;12.972;2022-08-19T02:45:38;19.80;99.90
10390;DHT22;5241;47.830;12.972;2022-08-19T02:48:08;19.70;99.90
10390;DHT22;5241;47.830;12.972;2022-08-19T02:50:39;19.70;99.90
10390;DHT22;5241;47.830;12.972;2022-08-19T02:53:05;19.70;99.90
10390;DHT22;5241;47.830;12.972;2022-08-19T02:55:32;19.60;99.90
10390;DHT22;5241;47.830;12.972;2022-08-19T02:57:58;19.70;99.90
10390;DHT22;5241;47.830;12.972;2022-08-19T03:00:25;19.70;99.90
10390;DHT22;5241;47.830;12.972;2022-08-19T03:02:51;19.70;99.90
10390;DHT22;5241;47.830;12.972;2022-08-19T03:05:17;19.60;99.90
10390;DHT22;5241;47.830;12.972;2022-08-19T03:07:43;19.60;99.90
10390;DHT22;5241;47.830;12.972;2022-08-19T03:10:09;19.70;99.90
10390;DHT22;5241;47.830;12.972;2022-08-19T03:12:36;19.70;99.90
10390;DHT22;5241;47.830;12.972;2022-08-19T03:15:03;19.70;99.90
10390;DHT22;5241;47.830;12.972;2022-08-19T03:17:29;19.70;99.90
10390;DHT22;5241;47.830;12.972;2022-08-19T03:19:54;19.70;99.90
10390;DHT22;5241;47.830;12.972;2022-08-19T03:22:20;19.80;99.90
10390;DHT22;5241;47.830;12.972;2022-08-19T03:24:45;19.70;99.90
10390;DHT22;5241;47.830;12.972;2022-08-19T03:27:11;19.70;99.90
10390;DHT22;5241;47.830;12.972;2022-08-19T03:29:38;19.70;99.90
10390;DHT22;5241;47.830;12.972;2022-08-19T03:32:05;19.70;99.90
10390;DHT22;5241;47.830;12.972;2022-08-19T03:34:32;19.70;99.90
10390;DHT22;5241;47.830;12.972;2022-08-19T03:37:04;19.70;99.90
10390;DHT22;5241;47.830;12.972;2022-08-19T03:39:30;19.80;99.90
10390;DHT22;5241;47.830;12.972;2022-08-19T03:41:56;19.80;99.90
10390;DHT22;5241;47.830;12.972;2022-08-19T03:44:23;19.80;99.90
10390;DHT22;5241;47.830;12.972;2022-08-19T03:46:57;19.90;99.90
10390;DHT22;5241;47.830;12.972;2022-08-19T03:49:26;19.90;99.90
10390;DHT22;5241;47.830;12.972;2022-08-19T03:51:53;19.90;99.90
10390;DHT22;5241;47.830;12.972;2022-08-19T03:54:21;19.90;99.90
10390;DHT22;5241;47.830;12.972;2022-08-19T03:56:49;19.90;99.90
10390;DHT22;5241;47.830;12.972;2022-08-19T03:59:22;19.90;99.90
10390;DHT22;5241;47.830;12.972;2022-08-19T04:01:55;20.10;99.90
10390;DHT22;5241;47.830;12.972;2022-08-19T04:04:22;20.00;99.90
10390;DHT22;5241;47.830;12.972;2022-08-19T04:06:47;19.90;99.90
10390;DHT22;5241;47.830;12.972;2022-08-19T04:09:13;19.70;99.90
10390;DHT22;5241;47.830;12.972;2022-08-19T04:11:43;19.60;99.90
10390;DHT22;5241;47.830;12.972;2022-08-19T04:14:11;19.50;99.90
10390;DHT22;5241;47.830;12.972;2022-08-19T04:16:37;19.40;99.90
10390;DHT22;5241;47.830;12.972;2022-08-19T04:19:04;19.40;99.90
10390;DHT22;5241;47.830;12.972;2022-08-19T04:21:31;19.30;99.90
10390;DHT22;5241;47.830;12.972;2022-08-19T04:23:57;19.20;99.90
10390;DHT22;5241;47.830;12.972;2022-08-19T04:26:26;19.00;99.90
10390;DHT22;5241;47.830;12.972;2022-08-19T04:28:52;18.90;99.90
10390;DHT22;5241;47.830;12.972;2022-08-19T04:31:21;18.80;99.90
10390;DHT22;5241;47.830;12.972;2022-08-19T04:33:47;18.80;99.90
10390;DHT22;5241;47.830;12.972;2022-08-19T04:36:40;18.80;99.90
10390;DHT22;5241;47.830;12.972;2022-08-19T04:39:09;18.70;99.90
10390;DHT22;5241;47.830;12.972;2022-08-19T04:41:36;18.70;99.90
10390;DHT22;5241;47.830;12.972;2022-08-19T04:44:20;18.60;99.90
10390;DHT22;5241;47.830;12.972;2022-08-19T04:46:48;18.60;99.90
10390;DHT22;5241;47.830;12.972;2022-08-19T04:49:14;18.60;99.90
10390;DHT22;5241;47.830;12.972;2022-08-19T04:51:42;18.60;99.90
10390;DHT22;5241;47.830;12.972;2022-08-19T04:54:08;18.60;99.90
10390;DHT22;5241;47.830;12.972;2022-08-19T04:56:34;18.60;99.90
10390;DHT22;5241;47.830;12.972;2022-08-19T04:59:00;18.50;99.90
10390;DHT22;5241;47.830;12.972;2022-08-19T05:01:31;18.50;99.90
10390;DHT22;5241;47.830;12.972;2022-08-19T05:03:59;18.50;99.90
10390;DHT22;5241;47.830;12.972;2022-08-19T05:06:26;18.50;99.90
10390;DHT22;5241;47.830;12.972;2022-08-19T05:08:54;18.50;99.90
10390;DHT22;5241;47.830;12.972;2022-08-19T05:11:24;18.50;99.90
10390;DHT22;5241;47.830;12.972;2022-08-19T05:13:51;18.50;99.90
10390;DHT22;5241;47.830;12.972;2022-08-19T05:16:18;18.60;99.90
10390;DHT22;5241;47.830;12.972;2022-08-19T05:18:44;18.50;99.90
10390;DHT22;5241;47.830;12.972;2022-08-19T05:21:48;18.50;99.90
10390;DHT22;5241;47.830;12.972;2022-08-19T05:24:32;18.40;99.90
10390;DHT22;5241;47.830;12.972;2022-08-19T05:27:00;18.50;99.90
10390;DHT22;5241;47.830;12.972;2022-08-19T05:29:28;18.50;99.90
10390;DHT22;5241;47.830;12.972;2022-08-19T05:31:54;18.50;99.90
10390;DHT22;5241;47.830;12.972;2022-08-19T05:34:21;18.60;99.90
10390;DHT22;5241;47.830;12.972;2022-08-19T05:36:51;18.70;99.90
10390;DHT22;5241;47.830;12.972;2022-08-19T05:39:19;18.80;99.90
10390;DHT22;5241;47.830;12.972;2022-08-19T05:41:50;18.80;99.90
10390;DHT22;5241;47.830;12.972;2022-08-19T05:44:16;18.80;99.90
10390;DHT22;5241;47.830;12.972;2022-08-19T05:46:45;18.90;99.90
10390;DHT22;5241;47.830;12.972;2022-08-19T05:49:14;18.90;99.90
10390;DHT22;5241;47.830;12.972;2022-08-19T05:51:41;19.00;99.90
10390;DHT22;5241;47.830;12.972;2022-08-19T05:54:08;19.10;99.90
10390;DHT22;5241;47.830;12.972;2022-08-19T05:56:34;19.10;99.90
10390;DHT22;5241;47.830;12.972;2022-08-19T05:59:04;19.30;99.90
10390;DHT22;5241;47.830;12.972;2022-08-19T06:01:34;19.40;99.90
10390;DHT22;5241;47.830;12.972;2022-08-19T06:04:00;19.40;99.90
10390;DHT22;5241;47.830;12.972;2022-08-19T06:06:25;19.60;99.90
10390;DHT22;5241;47.830;12.972;2022-08-19T06:08:51;19.70;99.90
10390;DHT22;5241;47.830;12.972;2022-08-19T06:11:20;19.70;99.90
10390;DHT22;5241;47.830;12.972;2022-08-19T06:13:48;19.80;99.90
10390;DHT22;5241;47.830;12.972;2022-08-19T06:16:17;20.00;99.90
10390;DHT22;5241;47.830;12.972;2022-08-19T06:18:49;20.10;99.90
10390;DHT22;5241;47.830;12.972;2022-08-19T06:21:17;20.20;99.90
10390;DHT22;5241;47.830;12.972;2022-08-19T06:23:43;20.40;99.90
10390;DHT22;5241;47.830;12.972;2022-08-19T06:26:12;20.70;99.90
10390;DHT22;5241;47.830;12.972;2022-08-19T06:28:37;20.90;99.90
10390;DHT22;5241;47.830;12.972;2022-08-19T06:31:13;21.00;99.90
10390;DHT22;5241;47.830;12.972;2022-08-19T06:33:40;21.00;99.90
10390;DHT22;5241;47.830;12.972;2022-08-19T06:36:06;21.00;99.90
10390;DHT22;5241;47.830;12.972;2022-08-19T06:38:32;21.00;99.90
10390;DHT22;5241;47.830;12.972;2022-08-19T06:41:04;21.00;99.90
10390;DHT22;5241;47.830;12.972;2022-08-19T06:43:30;20.80;99.90
10390;DHT22;5241;47.830;12.972;2022-08-19T06:45:56;20.80;99.90
10390;DHT22;5241;47.830;12.972;2022-08-19T06:48:22;20.80;99.90
10390;DHT22;5241;47.830;12.972;2022-08-19T06:50:48;20.80;99.90
10390;DHT22;5241;47.830;12.972;2022-08-19T06:53:15;20.60;99.90
10390;DHT22;5241;47.830;12.972;2022-08-19T06:55:40;20.50;99.90
10390;DHT22;5241;47.830;12.972;2022-08-19T06:58:06;20.50;99.90
10390;DHT22;5241;47.830;12.972;2022-08-19T07:00:32;20.50;99.90
10390;DHT22;5241;47.830;12.972;2022-08-19T07:02:58;20.60;99.90
10390;DHT22;5241;47.830;12.972;2022-08-19T07:05:24;20.50;99.90
10390;DHT22;5241;47.830;12.972;2022-08-19T07:07:50;20.60;99.90
10390;DHT22;5241;47.830;12.972;2022-08-19T07:10:16;20.70;99.90
10390;DHT22;5241;47.830;12.972;2022-08-19T07:12:41;20.70;99.90
10390;DHT22;5241;47.830;12.972;2022-08-19T07:15:07;20.60;99.90
10390;DHT22;5241;47.830;12.972;2022-08-19T07:17:36;20.40;99.90
10390;DHT22;5241;47.830;12.972;2022-08-19T07:20:05;20.40;99.90
10390;DHT22;5241;47.830;12.972;2022-08-19T07:22:36;20.30;99.90
10390;DHT22;5241;47.830;12.972;2022-08-19T07:25:03;20.40;99.90
10390;DHT22;5241;47.830;12.972;2022-08-19T07:27:29;20.60;99.90
10390;DHT22;5241;47.830;12.972;2022-08-19T07:29:54;20.70;99.90
10390;DHT22;5241;47.830;12.972;2022-08-19T07:32:20;21.00;99.90
10390;DHT22;5241;47.830;12.972;2022-08-19T07:34:46;21.20;99.90
10390;DHT22;5241;47.830;12.972;2022-08-19T07:37:11;21.40;99.90
10390;DHT22;5241;47.830;12.972;2022-08-19T07:39:38;21.50;99.90
10390;DHT22;5241;47.830;12.972;2022-08-19T07:42:07;21.80;99.90
10390;DHT22;5241;47.830;12.972;2022-08-19T07:44:35;22.00;99.90
10390;DHT22;5241;47.830;12.972;2022-08-19T07:47:00;21.90;99.90
10390;DHT22;5241;47.830;12.972;2022-08-19T07:49:27;21.80;99.90
10390;DHT22;5241;47.830;12.972;2022-08-19T07:51:56;22.10;99.90
10390;DHT22;5241;47.830;12.972;2022-08-19T07:54:24;22.10;99.90
10390;DHT22;5241;47.830;12.972;2022-08-19T07:56:50;22.30;99.90
10390;DHT22;5241;47.830;12.972;2022-08-19T07:59:16;22.00;99.90
10390;DHT22;5241;47.830;12.972;2022-08-19T08:01:43;21.90;99.90
10390;DHT22;5241;47.830;12.972;2022-08-19T08:04:09;21.80;99.90
10390;DHT22;5241;47.830;12.972;2022-08-19T08:06:54;21.80;99.90
10390;DHT22;5241;47.830;12.972;2022-08-19T08:09:41;21.80;99.90
10390;DHT22;5241;47.830;12.972;2022-08-19T08:12:16;22.10;99.90
10390;DHT22;5241;47.830;12.972;2022-08-19T08:14:46;22.20;99.90
10390;DHT22;5241;47.830;12.972;2022-08-19T08:17:13;22.40;99.90
10390;DHT22;5241;47.830;12.972;2022-08-19T08:19:40;22.60;99.90
10390;DHT22;5241;47.830;12.972;2022-08-19T08:22:10;22.70;99.90
10390;DHT22;5241;47.830;12.972;2022-08-19T08:24:56;22.90;99.90
10390;DHT22;5241;47.830;12.972;2022-08-19T08:27:24;23.10;99.90
10390;DHT22;5241;47.830;12.972;2022-08-19T08:29:50;23.30;99.90
10390;DHT22;5241;47.830;12.972;2022-08-19T08:32:15;23.10;99.90
10390;DHT22;5241;47.830;12.972;2022-08-19T08:34:42;23.30;99.90
10390;DHT22;5241;47.830;12.972;2022-08-19T08:37:07;23.80;99.90
10390;DHT22;5241;47.830;12.972;2022-08-19T08:39:33;24.70;99.90
10390;DHT22;5241;47.830;12.972;2022-08-19T08:47:19;25.50;99.90
10390;DHT22;5241;47.830;12.972;2022-08-19T08:49:53;25.00;99.90
10390;DHT22;5241;47.830;12.972;2022-08-19T08:52:43;24.80;99.90
10390;DHT22;5241;47.830;12.972;2022-08-19T08:55:19;24.50;99.90
10390;DHT22;5241;47.830;12.972;2022-08-19T09:00:24;23.90;99.90
10390;DHT22;5241;47.830;12.972;2022-08-19T09:02:52;25.00;99.90
10390;DHT22;5241;47.830;12.972;2022-08-19T09:05:20;25.00;99.90
10390;DHT22;5241;47.830;12.972;2022-08-19T09:10:30;24.60;99.90
10390;DHT22;5241;47.830;12.972;2022-08-19T09:15:32;23.80;99.90
10390;DHT22;5241;47.830;12.972;2022-08-19T09:18:02;23.70;99.90
10390;DHT22;5241;47.830;12.972;2022-08-19T09:20:30;23.50;99.90
10390;DHT22;5241;47.830;12.972;2022-08-19T09:22:56;23.10;99.90
10390;DHT22;5241;47.830;12.972;2022-08-19T09:25:22;22.80;99.90
10390;DHT22;5241;47.830;12.972;2022-08-19T09:27:49;22.70;99.90
10390;DHT22;5241;47.830;12.972;2022-08-19T09:30:20;22.40;99.90
10390;DHT22;5241;47.830;12.972;2022-08-19T09:32:47;22.30;99.90
10390;DHT22;5241;47.830;12.972;2022-08-19T09:35:14;22.60;99.90
10390;DHT22;5241;47.830;12.972;2022-08-19T09:37:41;22.90;99.90
10390;DHT22;5241;47.830;12.972;2022-08-19T09:40:08;23.80;99.90
10390;DHT22;5241;47.830;12.972;2022-08-19T09:42:34;24.30;99.90
10390;DHT22;5241;47.830;12.972;2022-08-19T09:45:00;24.60;99.90
10390;DHT22;5241;47.830;12.972;2022-08-19T09:47:25;24.70;99.90
10390;DHT22;5241;47.830;12.972;2022-08-19T09:49:51;25.10;99.90
10390;DHT22;5241;47.830;12.972;2022-08-19T09:52:17;25.40;99.90
10390;DHT22;5241;47.830;12.972;2022-08-19T09:54:43;25.40;99.90
10390;DHT22;5241;47.830;12.972;2022-08-19T09:57:08;25.20;99.90
10390;DHT22;5241;47.830;12.972;2022-08-19T09:59:34;25.10;99.90
10390;DHT22;5241;47.830;12.972;2022-08-19T10:02:00;25.30;99.90
10390;DHT22;5241;47.830;12.972;2022-08-19T10:04:25;25.80;99.90
10390;DHT22;5241;47.830;12.972;2022-08-19T10:07:10;26.60;99.90
10390;DHT22;5241;47.830;12.972;2022-08-19T10:09:35;26.80;99.90
10390;DHT22;5241;47.830;12.972;2022-08-19T10:12:03;27.10;99.90
10390;DHT22;5241;47.830;12.972;2022-08-19T10:14:30;27.20;99.90
10390;DHT22;5241;47.830;12.972;2022-08-19T10:16:55;26.60;99.90
10390;DHT22;5241;47.830;12.972;2022-08-19T10:19:22;25.70;99.90
10390;DHT22;5241;47.830;12.972;2022-08-19T10:21:47;25.50;99.90
10390;DHT22;5241;47.830;12.972;2022-08-19T10:24:13;25.20;99.90
10390;DHT22;5241;47.830;12.972;2022-08-19T10:26:39;25.00;99.90
10390;DHT22;5241;47.830;12.972;2022-08-19T10:29:09;24.80;99.90
10390;DHT22;5241;47.830;12.972;2022-08-19T10:31:37;24.70;99.90
10390;DHT22;5241;47.830;12.972;2022-08-19T10:34:03;24.50;99.90
10390;DHT22;5241;47.830;12.972;2022-08-19T10:36:31;24.40;99.90
10390;DHT22;5241;47.830;12.972;2022-08-19T10:38:59;24.50;99.90
10390;DHT22;5241;47.830;12.972;2022-08-19T10:41:30;24.60;99.90
10390;DHT22;5241;47.830;12.972;2022-08-19T10:43:57;24.70;99.90
10390;DHT22;5241;47.830;12.972;2022-08-19T10:46:25;24.70;99.90
10390;DHT22;5241;47.830;12.972;2022-08-19T10:48:51;24.80;99.90
10390;DHT22;5241;47.830;12.972;2022-08-19T10:51:17;24.60;99.90
10390;DHT22;5241;47.830;12.972;2022-08-19T10:54:02;24.50;99.90
10390;DHT22;5241;47.830;12.972;2022-08-19T10:56:29;24.80;99.90
10390;DHT22;5241;47.830;12.972;2022-08-19T10:59:15;25.40;99.90
10390;DHT22;5241;47.830;12.972;2022-08-19T11:01:42;25.90;99.90
10390;DHT22;5241;47.830;12.972;2022-08-19T11:04:08;25.80;99.90
10390;DHT22;5241;47.830;12.972;2022-08-19T11:06:42;26.00;99.90
10390;DHT22;5241;47.830;12.972;2022-08-19T11:09:09;26.80;99.90
10390;DHT22;5241;47.830;12.972;2022-08-19T11:11:36;27.60;99.90
10390;DHT22;5241;47.830;12.972;2022-08-19T11:14:07;27.90;99.90
10390;DHT22;5241;47.830;12.972;2022-08-19T11:16:33;27.80;99.90
10390;DHT22;5241;47.830;12.972;2022-08-19T11:18:59;27.10;99.90
10390;DHT22;5241;47.830;12.972;2022-08-19T11:21:28;27.00;99.90
10390;DHT22;5241;47.830;12.972;2022-08-19T11:23:59;26.50;99.90
10390;DHT22;5241;47.830;12.972;2022-08-19T11:26:25;26.10;99.90
10390;DHT22;5241;47.830;12.972;2022-08-19T11:28:51;25.60;99.90
10390;DHT22;5241;47.830;12.972;2022-08-19T11:31:21;25.80;99.90
10390;DHT22;5241;47.830;12.972;2022-08-19T11:33:47;25.90;99.90
10390;DHT22;5241;47.830;12.972;2022-08-19T11:36:16;25.90;99.90
10390;DHT22;5241;47.830;12.972;2022-08-19T11:38:43;25.70;99.90
10390;DHT22;5241;47.830;12.972;2022-08-19T11:41:09;25.80;99.90
10390;DHT22;5241;47.830;12.972;2022-08-19T11:43:35;26.00;99.90
10390;DHT22;5241;47.830;12.972;2022-08-19T11:46:06;26.20;99.90
10390;DHT22;5241;47.830;12.972;2022-08-19T11:48:32;26.40;99.90
10390;DHT22;5241;47.830;12.972;2022-08-19T11:50:58;27.20;99.90
10390;DHT22;5241;47.830;12.972;2022-08-19T11:53:23;27.60;99.90
10390;DHT22;5241;47.830;12.972;2022-08-19T11:55:53;28.10;99.90
10390;DHT22;5241;47.830;12.972;2022-08-19T11:58:21;28.80;98.20
10390;DHT22;5241;47.830;12.972;2022-08-19T12:00:47;29.60;95.70
10390;DHT22;5241;47.830;12.972;2022-08-19T12:03:13;30.00;94.80
10390;DHT22;5241;47.830;12.972;2022-08-19T12:05:40;31.00;90.60
10390;DHT22;5241;47.830;12.972;2022-08-19T12:08:06;30.80;90.80
10390;DHT22;5241;47.830;12.972;2022-08-19T12:10:33;30.00;92.00
10390;DHT22;5241;47.830;12.972;2022-08-19T12:12:59;30.00;90.20
10390;DHT22;5241;47.830;12.972;2022-08-19T12:15:26;28.50;93.10
10390;DHT22;5241;47.830;12.972;2022-08-19T12:17:53;27.70;94.20
10390;DHT22;5241;47.830;12.972;2022-08-19T12:20:22;27.70;94.00
10390;DHT22;5241;47.830;12.972;2022-08-19T12:22:48;27.50;94.20
10390;DHT22;5241;47.830;12.972;2022-08-19T12:25:14;27.00;95.40
10390;DHT22;5241;47.830;12.972;2022-08-19T12:27:39;26.90;96.30
10390;DHT22;5241;47.830;12.972;2022-08-19T12:30:07;26.90;96.30
10390;DHT22;5241;47.830;12.972;2022-08-19T12:32:34;27.30;95.00
10390;DHT22;5241;47.830;12.972;2022-08-19T12:34:59;27.20;95.30
10390;DHT22;5241;47.830;12.972;2022-08-19T12:37:25;26.50;97.00
10390;DHT22;5241;47.830;12.972;2022-08-19T12:39:50;26.40;97.20
10390;DHT22;5241;47.830;12.972;2022-08-19T12:42:16;26.30;97.30
10390;DHT22;5241;47.830;12.972;2022-08-19T12:44:43;26.60;95.90
10390;DHT22;5241;47.830;12.972;2022-08-19T12:47:11;27.00;94.60
10390;DHT22;5241;47.830;12.972;2022-08-19T12:49:38;26.80;96.40
10390;DHT22;5241;47.830;12.972;2022-08-19T12:52:06;26.60;96.50
10390;DHT22;5241;47.830;12.972;2022-08-19T12:54:34;27.00;95.40
10390;DHT22;5241;47.830;12.972;2022-08-19T12:56:59;26.80;95.30
10390;DHT22;5241;47.830;12.972;2022-08-19T12:59:26;26.90;95.20
10390;DHT22;5241;47.830;12.972;2022-08-19T13:01:51;27.00;96.00
10390;DHT22;5241;47.830;12.972;2022-08-19T13:04:17;27.20;95.80
10390;DHT22;5241;47.830;12.972;2022-08-19T13:06:43;26.70;95.80
10390;DHT22;5241;47.830;12.972;2022-08-19T13:09:09;27.10;95.20
10390;DHT22;5241;47.830;12.972;2022-08-19T13:11:35;27.30;94.90
10390;DHT22;5241;47.830;12.972;2022-08-19T13:14:02;27.30;94.70
10390;DHT22;5241;47.830;12.972;2022-08-19T13:16:29;27.10;94.90
10390;DHT22;5241;47.830;12.972;2022-08-19T13:18:55;26.40;95.80
10390;DHT22;5241;47.830;12.972;2022-08-19T13:21:24;26.80;95.40
10390;DHT22;5241;47.830;12.972;2022-08-19T13:23:50;26.70;95.40
10390;DHT22;5241;47.830;12.972;2022-08-19T13:26:16;26.60;95.90
10390;DHT22;5241;47.830;12.972;2022-08-19T13:28:44;26.50;96.60
10390;DHT22;5241;47.830;12.972;2022-08-19T13:31:31;26.10;96.90
10390;DHT22;5241;47.830;12.972;2022-08-19T13:34:16;25.90;98.30
10390;DHT22;5241;47.830;12.972;2022-08-19T13:36:43;25.60;99.10
10390;DHT22;5241;47.830;12.972;2022-08-19T13:39:09;25.50;99.30
10390;DHT22;5241;47.830;12.972;2022-08-19T13:41:36;25.30;99.90
10390;DHT22;5241;47.830;12.972;2022-08-19T13:44:03;25.10;99.90
10390;DHT22;5241;47.830;12.972;2022-08-19T13:46:29;25.30;99.80
10390;DHT22;5241;47.830;12.972;2022-08-19T13:48:56;25.40;99.60
10390;DHT22;5241;47.830;12.972;2022-08-19T13:51:22;25.60;99.40
10390;DHT22;5241;47.830;12.972;2022-08-19T13:53:47;25.50;99.90
10390;DHT22;5241;47.830;12.972;2022-08-19T13:56:15;25.50;99.90
10390;DHT22;5241;47.830;12.972;2022-08-19T13:58:41;25.20;99.90
10390;DHT22;5241;47.830;12.972;2022-08-19T14:01:08;25.20;99.90
10390;DHT22;5241;47.830;12.972;2022-08-19T14:03:34;25.20;99.90
10390;DHT22;5241;47.830;12.972;2022-08-19T14:06:00;25.30;99.90
10390;DHT22;5241;47.830;12.972;2022-08-19T14:08:26;25.30;99.90
10390;DHT22;5241;47.830;12.972;2022-08-19T14:10:54;25.10;99.90
10390;DHT22;5241;47.830;12.972;2022-08-19T14:13:22;25.00;99.90
10390;DHT22;5241;47.830;12.972;2022-08-19T14:15:48;24.90;99.90
10390;DHT22;5241;47.830;12.972;2022-08-19T14:18:14;24.80;99.90
10390;DHT22;5241;47.830;12.972;2022-08-19T14:20:40;24.90;99.90
10390;DHT22;5241;47.830;12.972;2022-08-19T14:23:06;25.00;99.90
10390;DHT22;5241;47.830;12.972;2022-08-19T14:25:32;25.20;99.90
10390;DHT22;5241;47.830;12.972;2022-08-19T14:27:59;25.10;99.90
10390;DHT22;5241;47.830;12.972;2022-08-19T14:30:31;25.00;99.90
10390;DHT22;5241;47.830;12.972;2022-08-19T14:32:58;25.10;99.90
10390;DHT22;5241;47.830;12.972;2022-08-19T14:35:26;25.20;99.90
10390;DHT22;5241;47.830;12.972;2022-08-19T14:37:52;24.90;99.90
10390;DHT22;5241;47.830;12.972;2022-08-19T14:40:23;25.10;99.90
10390;DHT22;5241;47.830;12.972;2022-08-19T14:42:56;24.90;99.90
10390;DHT22;5241;47.830;12.972;2022-08-19T14:45:25;25.10;99.90
10390;DHT22;5241;47.830;12.972;2022-08-19T14:47:51;25.20;99.90
10390;DHT22;5241;47.830;12.972;2022-08-19T14:50:18;25.30;99.90
10390;DHT22;5241;47.830;12.972;2022-08-19T14:52:44;25.50;99.90
10390;DHT22;5241;47.830;12.972;2022-08-19T14:55:10;25.50;99.90
10390;DHT22;5241;47.830;12.972;2022-08-19T14:57:36;25.30;99.90
10390;DHT22;5241;47.830;12.972;2022-08-19T15:00:03;25.10;99.90
10390;DHT22;5241;47.830;12.972;2022-08-19T15:02:29;25.00;99.90
10390;DHT22;5241;47.830;12.972;2022-08-19T15:04:54;24.60;99.90
10390;DHT22;5241;47.830;12.972;2022-08-19T15:07:21;24.20;99.90
10390;DHT22;5241;47.830;12.972;2022-08-19T15:09:49;23.80;99.90
10390;DHT22;5241;47.830;12.972;2022-08-19T15:12:16;23.60;99.90
10390;DHT22;5241;47.830;12.972;2022-08-19T15:14:41;23.50;99.90
10390;DHT22;5241;47.830;12.972;2022-08-19T15:17:09;23.50;99.90
10390;DHT22;5241;47.830;12.972;2022-08-19T15:19:35;23.40;99.90
10390;DHT22;5241;47.830;12.972;2022-08-19T15:22:01;23.40;99.90
10390;DHT22;5241;47.830;12.972;2022-08-19T15:24:26;23.30;99.90
10390;DHT22;5241;47.830;12.972;2022-08-19T15:26:53;23.10;99.90
10390;DHT22;5241;47.830;12.972;2022-08-19T15:29:21;23.00;99.90
10390;DHT22;5241;47.830;12.972;2022-08-19T15:31:50;22.80;99.90
10390;DHT22;5241;47.830;12.972;2022-08-19T15:34:16;22.80;99.90
10390;DHT22;5241;47.830;12.972;2022-08-19T15:36:42;22.70;99.90
10390;DHT22;5241;47.830;12.972;2022-08-19T15:39:08;22.60;99.90
10390;DHT22;5241;47.830;12.972;2022-08-19T15:41:35;22.60;99.90
10390;DHT22;5241;47.830;12.972;2022-08-19T15:44:04;22.50;99.90
10390;DHT22;5241;47.830;12.972;2022-08-19T15:46:32;22.50;99.90